createdAt,value
2022-11-16T00:05:59.481Z,24
2022-11-16T00:34:11.568Z,28
2022-11-16T01:02:34.617Z,25
2022-11-16T01:31:01.147Z,15
2022-11-16T01:59:03.241Z,26
2022-11-16T02:27:20.464Z,23
2022-11-16T02:55:43.754Z,19
2022-11-16T03:23:56.202Z,21
2022-11-16T03:52:15.412Z,19
2022-11-16T04:20:37.381Z,10
2022-11-16T04:48:51.611Z,7
2022-11-16T05:17:10.369Z,7
2022-11-16T05:45:20.950Z,7
2022-11-16T06:13:38.753Z,8
2022-11-16T06:42:31.566Z,6
2022-11-16T07:11:13.251Z,4
2022-11-16T07:40:13.686Z,5
2022-11-16T08:08:57.949Z,4
2022-11-16T08:37:19.067Z,4
2022-11-16T09:05:31.405Z,4
2022-11-16T09:33:53.469Z,3
2022-11-16T10:02:22.886Z,4
2022-11-16T10:30:43.198Z,3
2022-11-16T10:58:49.896Z,4
2022-11-16T11:27:16.184Z,4
2022-11-16T11:55:28.633Z,2
2022-11-16T12:23:29.468Z,3
2022-11-16T12:51:48.554Z,4
2022-11-16T13:20:10.290Z,4
2022-11-16T13:48:25.966Z,4
2022-11-16T14:16:45.736Z,2
2022-11-16T14:45:06.615Z,3
2022-11-16T15:13:27.319Z,22
2022-11-16T15:41:44.379Z,10
2022-11-16T16:09:58.250Z,10
2022-11-16T16:38:13.587Z,13
2022-11-16T17:06:35.261Z,7
2022-11-16T17:34:49.687Z,23
2022-11-16T18:03:09.462Z,8
2022-11-16T18:31:25.602Z,8
2022-11-16T18:59:44.881Z,8
2022-11-16T19:28:00.990Z,24
2022-11-16T19:56:26.534Z,11
2022-11-16T20:24:36.621Z,8
2022-11-16T20:52:52.929Z,7
2022-11-16T21:21:26.081Z,10
2022-11-16T21:50:16.701Z,8
2022-11-16T22:18:12.477Z,5
2022-11-16T22:47:05.114Z,5
2022-11-16T23:15:54.184Z,5
2022-11-16T23:44:47.149Z,4
